Time;durP1;ratioP1;P1;durP2;ratioP2;P2;SDS_P1;SDS_P2;PMS_P1;PMS_P2;Temp;Humidity;BMP_temperature;BMP_pressure;BME280_temperature;BME280_humidity;BME280_pressure;Samples;Min_cycle;Max_cycle;Signal;HPM_P1;HPM_P2
2022/03/14 00:02:30;;;;;;;24.02;12.60;;;;;;;3.65;30.32;101102.78;7735786;32;40047;-74
2022/03/14 00:06:49;;;;;;;23.05;13.02;;;;;;;3.24;31.83;101112.31;7735545;32;39893;-74
2022/03/14 00:11:05;;;;;;;24.80;12.63;;;;;;;3.41;32.04;101107.53;7735462;32;38046;-74
2022/03/14 00:15:21;;;;;;;22.15;13.32;;;;;;;3.53;31.54;101110.53;7735369;32;38145;-74
2022/03/14 00:19:39;;;;;;;28.27;14.55;;;;;;;3.26;32.77;101110.28;7735311;32;40112;-74
2022/03/14 00:23:57;;;;;;;22.62;12.32;;;;;;;2.96;33.85;101123.81;7734401;32;40150;-74
2022/03/14 00:28:13;;;;;;;29.15;14.23;;;;;;;3.33;32.73;101119.28;7737710;32;37853;-74
2022/03/14 00:32:29;;;;;;;26.10;13.60;;;;;;;2.98;33.00;101119.09;7739038;32;37367;-75
2022/03/14 00:36:45;;;;;;;24.05;13.13;;;;;;;3.16;32.49;101121.37;7739036;32;40060;-74
2022/03/14 00:41:01;;;;;;;24.85;13.55;;;;;;;3.12;33.11;101127.31;7739028;32;39864;-74
2022/03/14 00:45:17;;;;;;;22.33;12.95;;;;;;;3.17;32.80;101128.44;7738893;32;38557;-74
2022/03/14 00:49:34;;;;;;;23.15;13.23;;;;;;;2.64;34.05;101127.78;7738783;32;38027;-75
2022/03/14 00:53:54;;;;;;;27.13;13.68;;;;;;;2.96;33.46;101134.59;7738715;32;39098;-74
2022/03/14 00:58:10;;;;;;;29.65;13.77;;;;;;;2.92;33.51;101127.94;7738602;32;38315;-75
2022/03/14 01:02:27;;;;;;;25.77;13.75;;;;;;;2.58;33.93;101133.91;7738610;32;38809;-75
2022/03/14 01:06:43;;;;;;;24.60;13.02;;;;;;;2.65;33.38;101128.63;7738429;32;37951;-74
2022/03/14 01:10:59;;;;;;;26.62;14.07;;;;;;;2.65;32.25;101134.84;7737420;32;39228;-74
2022/03/14 01:15:15;;;;;;;31.77;13.82;;;;;;;2.62;31.66;101141.44;7738516;32;39927;-74
2022/03/14 01:19:31;;;;;;;26.27;14.07;;;;;;;2.66;31.15;101139.22;7738364;32;38580;-75
2022/03/14 01:23:47;;;;;;;25.02;13.48;;;;;;;2.84;31.61;101133.41;7738549;32;37165;-76
2022/03/14 01:28:04;;;;;;;27.92;13.43;;;;;;;2.67;33.96;101142.72;7738335;32;38366;-74
2022/03/14 01:32:20;;;;;;;23.75;12.93;;;;;;;2.89;33.12;101152.56;7738316;32;40517;-74
2022/03/14 01:36:36;;;;;;;23.02;12.35;;;;;;;2.62;33.69;101152.22;7737795;32;37711;-75
2022/03/14 01:40:52;;;;;;;26.05;13.45;;;;;;;2.59;33.55;101152.56;7738189;32;37162;-74
2022/03/14 01:45:09;;;;;;;25.00;14.35;;;;;;;2.82;33.74;101154.31;7738221;32;39946;-75
2022/03/14 01:49:25;;;;;;;24.12;14.10;;;;;;;2.69;34.00;101155.00;7737961;32;39977;-74
2022/03/14 01:53:42;;;;;;;24.63;14.10;;;;;;;2.43;34.06;101160.81;7737987;32;38472;-74
2022/03/14 01:57:58;;;;;;;24.42;13.68;;;;;;;2.56;34.36;101157.50;7737826;32;37107;-75
2022/03/14 02:02:14;;;;;;;23.20;13.10;;;;;;;2.62;34.05;101160.28;7736954;32;39062;-74
2022/03/14 02:06:32;;;;;;;27.17;13.57;;;;;;;2.41;32.79;101168.25;7737686;32;39680;-77
2022/03/14 02:10:48;;;;;;;22.80;13.10;;;;;;;2.51;33.43;101181.44;7737899;32;38580;-75
2022/03/14 02:15:05;;;;;;;26.85;13.25;;;;;;;2.49;33.66;101180.81;7737892;32;38207;-75
2022/03/14 02:19:21;;;;;;;26.15;12.85;;;;;;;2.28;33.77;101176.97;7737779;32;39294;-75
2022/03/14 02:23:38;;;;;;;26.08;13.32;;;;;;;1.98;34.29;101184.12;7737713;32;40241;-75
2022/03/14 02:27:54;;;;;;;24.58;12.73;;;;;;;2.19;33.81;101184.28;7737600;32;36130;-75
2022/03/14 02:32:11;;;;;;;24.40;13.48;;;;;;;2.08;34.20;101186.56;7737281;32;37971;-74
2022/03/14 02:36:27;;;;;;;27.77;13.20;;;;;;;1.94;33.88;101188.22;7737651;32;39593;-74
2022/03/14 02:40:48;;;;;;;28.30;13.73;;;;;;;2.25;32.82;101183.53;7737412;32;39941;-75
2022/03/14 02:45:04;;;;;;;25.37;13.00;;;;;;;2.18;32.74;101187.97;7737369;32;38695;-75
2022/03/14 02:49:20;;;;;;;20.73;12.73;;;;;;;2.02;32.00;101191.66;7735829;32;38311;-75
2022/03/14 02:53:36;;;;;;;26.58;13.68;;;;;;;2.20;31.97;101201.25;7737060;32;39013;-75
2022/03/14 02:57:53;;;;;;;26.98;14.27;;;;;;;2.05;34.99;101201.22;7737166;32;40840;-75
2022/03/14 03:02:10;;;;;;;26.35;13.77;;;;;;;2.01;36.14;101203.44;7737085;32;38063;-74
2022/03/14 03:06:27;;;;;;;23.80;13.23;;;;;;;1.86;34.69;101200.72;7736840;32;38092;-74
2022/03/14 03:10:43;;;;;;;28.27;14.00;;;;;;;1.86;34.96;101214.16;7737087;32;40142;-73
2022/03/14 03:14:59;;;;;;;24.92;13.75;;;;;;;2.04;34.49;101207.63;7736754;32;39905;-75
2022/03/14 03:19:15;;;;;;;25.77;13.98;;;;;;;2.02;34.93;101206.97;7736700;32;37906;-75
2022/03/14 03:23:34;;;;;;;23.62;13.43;;;;;;;1.60;34.81;101224.41;7736677;32;38033;-73
2022/03/14 03:27:50;;;;;;;31.17;14.18;;;;;;;2.05;33.39;101214.66;7709896;32;39322;-74
2022/03/14 03:32:12;;;;;;;26.30;13.45;;;;;;;1.94;33.91;101223.16;7709701;32;40760;-75
2022/03/14 03:36:28;;;;;;;26.33;13.62;;;;;;;1.85;33.83;101217.03;7717390;32;38481;-76
2022/03/14 03:40:44;;;;;;;23.10;12.98;;;;;;;1.72;35.29;101225.66;7736243;32;38072;-75
2022/03/14 03:45:00;;;;;;;24.92;13.65;;;;;;;1.77;34.99;101225.97;7736221;32;39171;-75
2022/03/14 03:49:17;;;;;;;27.85;14.00;;;;;;;1.75;35.96;101225.31;7735877;32;40054;-75
2022/03/14 03:53:33;;;;;;;28.83;13.95;;;;;;;1.57;37.45;101219.38;7735768;32;37904;-74
2022/03/14 03:57:49;;;;;;;25.83;13.40;;;;;;;1.71;37.83;101224.00;7735751;32;37074;-75
2022/03/14 04:02:05;;;;;;;21.70;13.10;;;;;;;1.57;38.74;101232.81;7738973;32;39303;-74
2022/03/14 04:06:30;;;;;;;23.12;13.32;;;;;;;1.52;41.09;101236.06;7739014;32;40961;-75
2022/03/14 04:10:53;;;;;;;26.45;14.32;;;;;;;1.45;41.15;101232.38;7739394;32;38544;-74
2022/03/14 04:15:10;;;;;;;26.23;14.25;;;;;;;1.39;44.91;101236.63;7739262;32;37189;-74
2022/03/14 04:19:29;;;;;;;25.83;13.50;;;;;;;0.97;47.49;101248.56;7739245;32;39434;-74
2022/03/14 04:23:46;;;;;;;24.10;13.65;;;;;;;1.23;46.44;101247.44;7739041;32;39977;-74
2022/03/14 04:28:02;;;;;;;28.08;15.00;;;;;;;1.30;44.18;101248.44;7739093;32;38712;-74
2022/03/14 04:32:18;;;;;;;26.75;14.10;;;;;;;1.48;43.33;101257.06;7739117;32;37589;-73
2022/03/14 04:36:34;;;;;;;30.80;14.93;;;;;;;1.28;43.18;101264.72;7738898;32;39803;-74
2022/03/14 04:40:54;;;;;;;24.37;13.35;;;;;;;1.68;41.36;101259.31;7738921;32;40914;-74
2022/03/14 04:45:10;;;;;;;27.87;13.77;;;;;;;1.46;39.62;101263.63;7738558;32;38727;-74
2022/03/14 04:49:27;;;;;;;28.58;14.75;;;;;;;0.79;42.35;101267.56;7738656;32;37047;-74
2022/03/14 04:53:43;;;;;;;26.00;13.32;;;;;;;1.30;40.80;101264.53;7738640;32;40218;-75
2022/03/14 04:57:59;;;;;;;26.33;13.50;;;;;;;1.25;40.45;101277.66;7738705;32;39878;-75
2022/03/14 05:02:19;;;;;;;23.58;12.23;;;;;;;1.07;41.07;101286.78;7738655;32;38052;-73
2022/03/14 05:06:35;;;;;;;23.45;13.27;;;;;;;1.08;40.31;101293.00;7737457;32;37278;-73
2022/03/14 05:10:51;;;;;;;24.83;13.27;;;;;;;1.34;39.61;101290.03;7737366;32;39641;-74
2022/03/14 05:15:08;;;;;;;26.10;13.95;;;;;;;1.19;40.62;101287.25;7738607;32;39998;-74
2022/03/14 05:19:24;;;;;;;29.20;16.35;;;;;;;0.79;40.43;101286.34;7738574;32;37618;-74
2022/03/14 05:23:40;;;;;;;25.02;14.38;;;;;;;1.32;37.95;101289.38;7738174;32;37941;-73
2022/03/14 05:27:57;;;;;;;26.52;13.75;;;;;;;1.17;40.39;101291.13;7738332;32;39201;-76
2022/03/14 05:32:13;;;;;;;29.02;14.50;;;;;;;1.23;41.85;101301.19;7738348;32;40814;-74
2022/03/14 05:36:29;;;;;;;25.27;15.13;;;;;;;0.86;43.92;101308.84;7737984;32;37879;-75
2022/03/14 05:40:46;;;;;;;26.17;14.52;;;;;;;1.14;42.46;101324.56;7738299;32;37171;-76
2022/03/14 05:45:02;;;;;;;24.20;13.60;;;;;;;1.41;41.83;101315.19;7738308;32;39350;-75
2022/03/14 05:49:18;;;;;;;25.17;14.38;;;;;;;1.50;40.39;101327.63;7738139;32;40778;-76
2022/03/14 05:53:35;;;;;;;19.00;11.52;;;;;;;1.13;42.44;101329.06;7737903;32;38010;-75
2022/03/14 05:57:51;;;;;;;21.45;11.93;;;;;;;1.62;33.30;101324.53;7738075;32;37612;-75
2022/03/14 06:02:09;;;;;;;25.98;12.50;;;;;;;1.78;30.59;101331.69;7738010;32;40047;-73
2022/03/14 06:06:25;;;;;;;23.65;12.00;;;;;;;1.97;31.77;101338.47;7737560;32;39927;-74
2022/03/14 06:10:42;;;;;;;28.17;13.80;;;;;;;2.35;31.05;101346.66;7737964;32;37942;-75
2022/03/14 06:15:00;;;;;;;27.17;14.95;;;;;;;2.13;34.41;101354.50;7737971;32;37531;-73
2022/03/14 06:19:19;;;;;;;32.78;18.23;;;;;;;1.93;41.34;101364.03;7737992;32;40030;-73
2022/03/14 06:23:36;;;;;;;35.08;16.80;;;;;;;1.40;41.56;101372.66;7737249;32;40033;-73
2022/03/14 06:27:52;;;;;;;27.83;15.32;;;;;;;1.85;40.20;101367.62;7737697;32;39161;-73
2022/03/14 06:32:08;;;;;;;30.50;16.33;;;;;;;2.32;35.97;101376.59;7737923;32;37174;-73
2022/03/14 06:36:25;;;;;;;34.00;17.12;;;;;;;2.14;40.24;101385.78;7737287;32;39157;-73
2022/03/14 06:40:42;;;;;;;36.58;17.75;;;;;;;2.18;40.32;101381.72;7736896;32;40971;-73
2022/03/14 06:45:01;;;;;;;38.67;17.48;;;;;;;2.61;39.55;101386.66;7737366;32;37943;-73
2022/03/14 06:49:17;;;;;;;24.37;14.20;;;;;;;2.69;39.89;101386.59;7736194;32;37066;-74
2022/03/14 06:53:33;;;;;;;29.90;16.20;;;;;;;2.90;34.89;101382.34;7737326;32;39427;-74
2022/03/14 06:57:50;;;;;;;21.12;12.40;;;;;;;3.36;34.76;101384.94;7736032;32;39991;-74
2022/03/14 07:02:07;;;;;;;25.95;12.77;;;;;;;3.84;28.47;101387.25;7710303;32;37718;-74
2022/03/14 07:06:23;;;;;;;30.05;15.15;;;;;;;4.30;28.50;101382.41;7710689;32;36466;-74
2022/03/14 07:10:40;;;;;;;28.17;15.00;;;;;;;4.61;30.69;101380.44;7710185;32;39434;-74
2022/03/14 07:14:56;;;;;;;34.20;18.62;;;;;;;4.85;29.58;101381.88;7710116;32;39905;-74
2022/03/14 07:19:12;;;;;;;26.08;13.70;;;;;;;5.01;32.49;101386.16;7710259;32;38259;-75
2022/03/14 07:23:28;;;;;;;22.25;12.52;;;;;;;5.45;28.34;101380.44;7710057;32;38196;-75
2022/03/14 07:27:44;;;;;;;19.33;11.07;;;;;;;5.88;25.17;101373.16;7709904;32;39379;-75
2022/03/14 07:32:00;;;;;;;24.30;12.32;;;;;;;6.16;23.54;101375.81;7709678;32;41212;-75
2022/03/14 07:36:17;;;;;;;21.95;12.35;;;;;;;6.56;22.98;101389.44;7723702;32;37757;-74
2022/03/14 07:40:34;;;;;;;22.92;12.00;;;;;;;6.84;22.31;101383.00;7738369;32;37958;-73
2022/03/14 07:44:50;;;;;;;24.35;12.32;;;;;;;6.97;21.73;101380.28;7739872;32;39080;-73
2022/03/14 07:49:08;;;;;;;19.65;11.10;;;;;;;7.33;21.66;101377.13;7739610;32;39586;-74
2022/03/14 07:53:24;;;;;;;19.17;10.63;;;;;;;7.47;25.40;101380.62;7739697;32;37989;-74
2022/03/14 07:57:41;;;;;;;20.83;11.57;;;;;;;7.96;22.29;101374.84;7739664;32;38380;-71
2022/03/14 08:01:57;;;;;;;22.87;12.48;;;;;;;8.24;21.12;101374.47;7739513;32;39409;-73
2022/03/14 08:06:19;;;;;;;18.65;11.70;;;;;;;8.47;20.21;101376.69;7739570;32;39979;-71
2022/03/14 08:10:39;;;;;;;21.35;12.23;;;;;;;8.65;20.02;101384.09;7739537;32;37991;-72
2022/03/14 08:14:55;;;;;;;21.45;11.75;;;;;;;8.78;20.00;101383.19;7739479;32;38053;-72
2022/03/14 08:19:12;;;;;;;21.52;11.90;;;;;;;8.90;20.12;101378.69;7739480;32;39765;-73
2022/03/14 08:23:28;;;;;;;22.58;11.73;;;;;;;9.20;19.64;101386.97;7739033;32;41132;-72
2022/03/14 08:27:44;;;;;;;17.60;10.93;;;;;;;9.37;19.67;101387.25;7739249;32;37587;-72
2022/03/14 08:32:00;;;;;;;18.30;10.65;;;;;;;9.76;19.59;101382.44;7739251;32;36854;-72
2022/03/14 08:36:20;;;;;;;18.85;11.00;;;;;;;9.96;19.29;101379.44;7738910;32;39448;-72
2022/03/14 08:40:36;;;;;;;18.12;10.35;;;;;;;10.19;19.04;101377.06;7739055;32;39628;-73
2022/03/14 08:44:52;;;;;;;21.95;11.98;;;;;;;10.43;19.14;101384.31;7731920;32;223712;-72
2022/03/14 08:49:08;;;;;;;22.70;12.15;;;;;;;9.90;19.54;101395.87;7738615;32;37224;-72
2022/03/14 08:53:24;;;;;;;22.50;12.40;;;;;;;10.75;18.78;101389.50;7738781;32;39846;-72
2022/03/14 08:57:42;;;;;;;20.27;12.60;;;;;;;10.88;18.75;101392.03;7738663;32;39704;-72
2022/03/14 09:01:58;;;;;;;22.37;12.32;;;;;;;11.10;18.58;101394.19;7738728;32;38865;-72
2022/03/14 09:06:14;;;;;;;18.33;11.73;;;;;;;11.34;18.35;101377.81;7738420;32;38026;-73
2022/03/14 09:10:36;;;;;;;18.77;11.12;;;;;;;11.52;17.97;101387.75;7738588;32;39418;-71
2022/03/14 09:14:52;;;;;;;19.70;11.82;;;;;;;11.92;17.59;101396.06;7738702;32;39674;-73
2022/03/14 09:19:08;;;;;;;23.70;11.80;;;;;;;12.09;17.87;101390.66;7738431;32;38623;-72
2022/03/14 09:23:25;;;;;;;22.90;11.98;;;;;;;12.34;17.12;101387.56;7738392;32;36931;-73
2022/03/14 09:27:45;;;;;;;16.10;10.23;;;;;;;12.46;16.54;101384.78;7738598;32;40156;-82
2022/03/14 09:32:01;;;;;;;18.70;10.00;;;;;;;13.12;16.47;101387.84;7737273;32;40004;-71
2022/03/14 09:36:17;;;;;;;18.40;9.43;;;;;;;12.99;16.76;101390.06;7738445;32;38830;-75
2022/03/14 09:40:33;;;;;;;16.70;8.52;;;;;;;13.07;15.82;101395.97;7738341;32;37131;-72
2022/03/14 09:44:53;;;;;;;15.05;7.72;;;;;;;13.41;15.15;101395.94;7738122;32;39415;-75
2022/03/14 09:49:12;;;;;;;13.88;7.47;;;;;;;13.61;14.67;101389.13;7737811;32;39905;-75
2022/03/14 09:53:29;;;;;;;13.07;7.50;;;;;;;14.04;13.22;101379.25;7738061;32;37972;-76
2022/03/14 09:57:46;;;;;;;11.02;6.55;;;;;;;13.15;13.37;101397.44;7736531;32;37083;-75
2022/03/14 10:02:02;;;;;;;17.35;7.30;;;;;;;13.82;12.68;101385.56;7738131;32;40158;-75
2022/03/14 10:06:18;;;;;;;15.88;8.48;;;;;;;13.69;13.22;101389.50;7738262;32;40004;-74
2022/03/14 10:10:37;;;;;;;12.13;7.20;;;;;;;13.93;13.16;101380.19;7737943;32;38776;-75
2022/03/14 10:14:53;;;;;;;21.25;11.75;;;;;;;13.69;12.79;101383.19;7738052;32;38199;-76
2022/03/14 10:19:10;;;;;;;15.10;7.50;;;;;;;13.90;12.98;101387.00;7737923;32;40094;-75
2022/03/14 10:23:42;;;;;;;12.63;7.30;;;;;;;13.80;13.34;101395.94;7737615;32;39668;-76
2022/03/14 10:28:01;;;;;;;14.13;8.38;;;;;;;14.46;12.71;101384.91;7738012;32;38313;-76
2022/03/14 10:32:29;;;;;;;14.00;7.45;;;;;;;14.86;12.19;101387.50;7737700;32;36303;-77
2022/03/14 10:36:52;;;;;;;15.98;8.00;;;;;;;14.90;12.50;101389.47;7737451;32;39397;-76
2022/03/14 10:41:15;;;;;;;14.45;7.40;;;;;;;15.60;11.74;101389.41;7732069;32;40041;-75
2022/03/14 10:45:51;;;;;;;14.57;7.40;;;;;;;15.31;12.63;101383.44;7733771;32;38149;-76
2022/03/14 10:50:08;;;;;;;12.93;7.37;;;;;;;15.80;12.91;101379.63;7711547;32;38216;-76
2022/03/14 10:54:24;;;;;;;11.63;6.47;;;;;;;16.52;11.58;101375.16;7736140;32;39391;-77
2022/03/14 10:58:41;;;;;;;14.45;8.00;;;;;;;16.61;11.63;101369.94;7737405;32;40619;-77
2022/03/14 11:03:03;;;;;;;16.80;7.50;;;;;;;16.55;11.94;101373.78;7735779;32;37868;-77
2022/03/14 11:07:24;;;;;;;13.73;7.43;;;;;;;16.76;11.74;101361.69;7735691;32;37210;-79
2022/03/14 11:11:40;;;;;;;11.77;5.35;;;;;;;17.49;11.69;101355.00;7718191;32;39912;-78
2022/03/14 11:15:56;;;;;;;11.43;5.82;;;;;;;16.38;12.75;101372.09;7729231;32;39618;-78
2022/03/14 11:20:13;;;;;;;20.77;7.03;;;;;;;17.65;11.67;101364.88;7736054;32;37951;-78
2022/03/14 11:24:29;;;;;;;12.00;6.82;;;;;;;17.27;11.34;101360.84;7717804;32;37102;-77
2022/03/14 11:28:46;;;;;;;14.85;7.65;;;;;;;17.69;11.06;101354.09;7729753;32;40086;-79
2022/03/14 11:33:03;;;;;;;13.40;7.10;;;;;;;16.76;12.40;101350.66;7736078;32;39977;-78
2022/03/14 11:37:20;;;;;;;12.30;7.05;;;;;;;17.56;11.35;101352.78;7736231;32;38690;-76
2022/03/14 11:41:38;;;;;;;10.77;5.80;;;;;;;18.04;11.32;101341.31;7736073;32;37296;-78
2022/03/14 11:45:58;;;;;;;12.05;6.35;;;;;;;17.94;11.14;101338.59;7735098;32;39134;-78
2022/03/14 11:50:16;;;;;;;13.75;6.68;;;;;;;17.86;11.23;101330.88;7713571;32;39855;-77
2022/03/14 11:54:40;;;;;;;11.60;6.65;;;;;;;18.00;11.76;101331.94;7734282;32;38409;-78
2022/03/14 11:59:00;;;;;;;13.20;6.45;;;;;;;18.12;11.25;101328.84;7735311;32;37841;-77
2022/03/14 12:03:35;;;;;;;15.32;7.90;;;;;;;18.01;11.59;101328.06;7735460;32;39159;-77
2022/03/14 12:07:51;;;;;;;15.13;8.32;;;;;;;18.78;10.80;101321.97;7734985;32;40044;-76
2022/03/14 12:12:27;;;;;;;12.02;6.20;;;;;;;18.79;11.04;101311.78;7734089;32;38900;-79
2022/03/14 12:16:47;;;;;;;14.43;5.95;;;;;;;18.18;10.83;101311.97;7735027;32;37983;-77
2022/03/14 12:21:23;;;;;;;10.63;5.93;;;;;;;17.80;11.40;101313.53;7735941;32;40079;-77
2022/03/14 12:25:42;;;;;;;13.57;7.10;;;;;;;18.38;10.86;101304.63;7737224;32;39992;-78
2022/03/14 12:29:59;;;;;;;14.32;5.82;;;;;;;17.96;11.57;101308.78;7714629;32;37950;-77
2022/03/14 12:34:16;;;;;;;9.77;5.43;;;;;;;18.47;11.08;101307.59;7737793;32;37830;-77
2022/03/14 12:38:37;;;;;;;14.43;6.90;;;;;;;19.05;11.57;101304.91;7738259;32;40080;-77
2022/03/14 12:43:11;;;;;;;9.45;5.65;;;;;;;18.65;11.03;101301.37;7738126;32;40739;-78
2022/03/14 12:47:28;;;;;;;11.02;5.68;;;;;;;17.99;11.39;101309.03;7737969;32;38080;-77
2022/03/14 12:51:46;;;;;;;11.88;6.18;;;;;;;17.63;11.42;101306.44;7735941;32;37841;-76
2022/03/14 12:56:12;;;;;;;9.85;5.62;;;;;;;18.27;11.50;101301.13;7737309;32;39893;-76
2022/03/14 13:00:28;;;;;;;13.07;6.37;;;;;;;18.71;11.09;101296.62;7738352;32;40185;-76
2022/03/14 13:05:04;;;;;;;20.50;6.25;;;;;;;18.58;11.18;101292.62;7736759;32;38827;-78
2022/03/14 13:09:30;;;;;;;9.70;5.45;;;;;;;18.93;10.97;101294.25;7736974;32;37957;-78
2022/03/14 13:13:47;;;;;;;9.55;4.93;;;;;;;19.11;10.69;101294.63;7738385;32;39346;-77
2022/03/14 13:18:14;;;;;;;15.77;5.07;;;;;;;18.87;10.71;101294.59;7738401;32;39875;-77
2022/03/14 13:22:30;;;;;;;9.98;4.70;;;;;;;19.10;11.02;101296.56;7724314;32;37594;-77
2022/03/14 13:26:51;;;;;;;9.25;5.53;;;;;;;18.82;11.05;101297.38;7738078;32;37198;-77
2022/03/14 13:31:09;;;;;;;19.45;5.28;;;;;;;18.83;10.82;101304.56;7737532;32;39880;-77
2022/03/14 13:35:25;;;;;;;9.45;5.03;;;;;;;18.21;11.58;101299.50;7736041;32;40297;-76
2022/03/14 13:39:47;;;;;;;11.25;5.82;;;;;;;18.37;12.10;101291.97;7737838;32;38634;-77
2022/03/14 13:44:04;;;;;;;10.77;5.62;;;;;;;18.65;11.18;101293.09;7738008;32;38204;-77
2022/03/14 13:48:21;;;;;;;12.15;5.32;;;;;;;18.25;11.93;101295.09;7737439;32;39945;-77
2022/03/14 13:52:49;;;;;;;9.18;5.15;;;;;;;17.99;12.39;101292.47;7737627;32;40818;-78
2022/03/14 13:57:10;;;;;;;10.90;5.15;;;;;;;18.33;11.53;101290.87;7736460;32;37847;-78
2022/03/14 14:01:46;;;;;;;9.50;5.20;;;;;;;19.14;11.30;101292.13;7737969;32;37715;-79
2022/03/14 14:06:16;;;;;;;7.82;4.30;;;;;;;19.45;10.79;101283.44;7737724;32;39654;-78
2022/03/14 14:10:35;;;;;;;9.85;4.82;;;;;;;18.71;11.56;101280.91;7737434;32;41138;-78
2022/03/14 14:14:56;;;;;;;10.27;4.75;;;;;;;18.85;11.60;101296.81;7736681;32;38717;-74
2022/03/14 14:19:13;;;;;;;10.85;4.57;;;;;;;19.21;11.15;101286.22;7737524;32;36903;-78
2022/03/14 14:23:33;;;;;;;9.07;5.00;;;;;;;19.04;13.79;101288.59;7732559;32;39271;-76
2022/03/14 14:28:18;;;;;;;10.30;5.18;;;;;;;18.62;11.42;101287.34;7726662;32;38426;-75
2022/03/14 14:32:34;;;;;;;9.20;5.20;;;;;;;18.33;11.87;101288.09;7717286;32;38627;-76
2022/03/14 14:36:51;;;;;;;10.10;5.18;;;;;;;18.86;11.61;101292.94;7737451;32;38214;-76
2022/03/14 14:41:09;;;;;;;8.80;4.43;;;;;;;19.08;11.84;101276.69;7738083;32;38238;-76
2022/03/14 14:45:25;;;;;;;10.73;5.05;;;;;;;18.86;11.40;101285.47;7737573;32;39966;-76
2022/03/14 14:49:41;;;;;;;13.65;6.62;;;;;;;19.09;11.26;101281.13;7736109;32;37816;-74
2022/03/14 14:53:57;;;;;;;15.60;5.25;;;;;;;19.13;11.23;101270.28;7736149;32;38206;-73
2022/03/14 14:58:14;;;;;;;10.50;5.53;;;;;;;18.95;11.11;101260.78;7734049;32;40137;-79
2022/03/14 15:02:35;;;;;;;9.20;5.20;;;;;;;19.74;10.78;101256.81;7735672;32;40863;-80
2022/03/14 15:06:52;;;;;;;20.08;5.32;;;;;;;19.06;11.54;101270.63;7736239;32;37851;-79
2022/03/14 15:11:11;;;;;;;9.75;5.15;;;;;;;19.56;11.23;101273.09;7736989;32;37902;-79
2022/03/14 15:15:29;;;;;;;10.25;4.87;;;;;;;19.76;11.16;101277.53;7722750;32;39384;-79
2022/03/14 15:19:45;;;;;;;8.98;4.90;;;;;;;19.84;11.08;101285.19;7721586;32;40756;-79
2022/03/14 15:24:01;;;;;;;10.07;4.80;;;;;;;20.40;10.49;101279.91;7736337;32;36956;-79
2022/03/14 15:28:17;;;;;;;17.77;5.82;;;;;;;19.75;10.48;101269.53;7733857;32;37387;-80
2022/03/14 15:32:34;;;;;;;16.42;6.00;;;;;;;19.06;11.34;101276.16;7718022;32;40088;-79
2022/03/14 15:36:51;;;;;;;8.45;4.57;;;;;;;18.85;11.86;101277.47;7711903;32;40425;-80
2022/03/14 15:41:07;;;;;;;8.95;5.07;;;;;;;18.60;11.81;101282.09;7736022;32;37985;-80
2022/03/14 15:45:24;;;;;;;14.52;5.43;;;;;;;18.55;11.69;101274.66;7736118;32;36993;-79
2022/03/14 15:49:41;;;;;;;10.00;4.65;;;;;;;18.04;12.56;101279.75;7735158;32;39172;-80
2022/03/14 15:53:57;;;;;;;9.13;5.00;;;;;;;17.99;12.14;101280.63;7735649;32;40213;-80
2022/03/14 15:58:14;;;;;;;20.52;10.93;;;;;;;17.59;12.80;101288.81;7738491;32;38728;-80
2022/03/14 16:02:33;;;;;;;10.23;4.53;;;;;;;17.82;12.94;101284.53;7739274;32;38143;-80
2022/03/14 16:06:50;;;;;;;17.60;6.80;;;;;;;17.52;12.90;101293.78;7739254;32;40206;-80
2022/03/14 16:11:06;;;;;;;13.80;6.80;;;;;;;17.99;12.67;101286.97;7738970;32;39927;-79
2022/03/14 16:15:22;;;;;;;14.48;6.85;;;;;;;17.63;12.85;101289.88;7739326;32;38733;-80
2022/03/14 16:19:38;;;;;;;15.32;7.75;;;;;;;17.70;12.86;101294.28;7739056;32;37725;-79
2022/03/14 16:23:56;;;;;;;25.42;12.80;;;;;;;17.23;13.60;101297.19;7724899;32;39408;-79
2022/03/14 16:28:12;;;;;;;43.45;23.27;;;;;;;16.63;14.04;101301.66;7738482;32;39957;-79
2022/03/14 16:32:28;;;;;;;21.67;10.82;;;;;;;16.68;14.11;101312.69;7738885;32;37790;-79
2022/03/14 16:36:44;;;;;;;8.15;4.95;;;;;;;16.69;14.02;101312.41;7738841;32;37017;-76
2022/03/14 16:41:01;;;;;;;10.60;4.75;;;;;;;17.01;14.25;101318.75;7738054;32;39125;-76
2022/03/14 16:45:18;;;;;;;8.85;4.82;;;;;;;16.63;14.14;101323.69;7739104;32;40764;-75
2022/03/14 16:49:34;;;;;;;10.20;5.68;;;;;;;16.15;14.65;101329.41;7737413;32;37875;-76
2022/03/14 16:53:50;;;;;;;11.32;5.47;;;;;;;15.03;15.64;101328.59;7738812;32;37338;-76
2022/03/14 16:58:06;;;;;;;9.98;4.85;;;;;;;14.14;16.52;101332.72;7739070;32;39269;-76
2022/03/14 17:02:22;;;;;;;11.73;5.12;;;;;;;13.77;16.94;101324.38;7738908;32;40473;-75
2022/03/14 17:06:39;;;;;;;9.25;4.70;;;;;;;14.38;16.46;101335.16;7737388;32;37762;-77
2022/03/14 17:10:55;;;;;;;10.30;5.32;;;;;;;14.11;16.69;101340.62;7738814;32;37846;-77
2022/03/14 17:15:11;;;;;;;12.13;6.12;;;;;;;14.16;16.48;101355.25;7738709;32;39441;-76
2022/03/14 17:19:27;;;;;;;16.50;9.07;;;;;;;14.18;16.48;101360.50;7738747;32;40123;-76
2022/03/14 17:23:43;;;;;;;16.50;9.57;;;;;;;14.04;16.72;101368.28;7738249;32;38356;-76
2022/03/14 17:28:00;;;;;;;18.90;9.73;;;;;;;13.67;17.17;101371.66;7737895;32;37519;-77
2022/03/14 17:32:16;;;;;;;22.87;11.80;;;;;;;13.42;17.36;101381.19;7738202;32;39222;-75
2022/03/14 17:36:32;;;;;;;11.98;6.05;;;;;;;13.44;17.32;101372.72;7737362;32;39815;-75
2022/03/14 17:40:49;;;;;;;17.70;10.57;;;;;;;13.28;17.79;101396.25;7738404;32;38938;-74
2022/03/14 17:45:06;;;;;;;69.70;32.38;;;;;;;13.20;17.69;101415.88;7738072;32;37917;-76
2022/03/14 17:49:22;;;;;;;17.30;7.43;;;;;;;13.07;18.10;101434.31;7737977;32;39985;-76
2022/03/14 17:53:38;;;;;;;17.55;8.98;;;;;;;12.89;18.54;101427.13;7737843;32;39734;-76
2022/03/14 17:57:54;;;;;;;11.07;5.45;;;;;;;12.80;18.46;101425.91;7737932;32;37891;-76
2022/03/14 18:02:10;;;;;;;10.57;5.22;;;;;;;12.47;18.84;101412.97;7737903;32;37169;-75
2022/03/14 18:06:32;;;;;;;15.25;5.35;;;;;;;12.29;19.24;101414.81;7737491;32;40111;-76
2022/03/14 18:10:49;;;;;;;13.10;4.97;;;;;;;12.26;19.17;101418.03;7737745;32;40132;-76
2022/03/14 18:15:06;;;;;;;9.10;5.50;;;;;;;12.19;19.25;101414.62;7732300;32;38719;-76
2022/03/14 18:19:22;;;;;;;17.35;7.80;;;;;;;12.17;19.14;101408.56;7737318;32;37015;-76
2022/03/14 18:23:39;;;;;;;10.18;5.50;;;;;;;11.92;19.48;101411.62;7736867;32;39402;-76
2022/03/14 18:27:55;;;;;;;30.58;17.37;;;;;;;11.72;19.88;101411.97;7728512;32;41410;-76
2022/03/14 18:32:11;;;;;;;12.52;6.78;;;;;;;11.68;19.98;101399.87;7737374;32;38590;-74
2022/03/14 18:36:27;;;;;;;16.35;7.90;;;;;;;11.28;20.64;101412.38;7737353;32;37921;-76
2022/03/14 18:40:45;;;;;;;12.50;7.15;;;;;;;11.17;21.02;101418.62;7737561;32;39424;-75
2022/03/14 18:45:06;;;;;;;13.18;7.35;;;;;;;11.01;21.40;101433.81;7737454;32;38890;-75
2022/03/14 18:49:23;;;;;;;12.55;6.43;;;;;;;10.79;21.75;101445.25;7737062;32;38050;-75
2022/03/14 18:53:44;;;;;;;20.10;8.88;;;;;;;10.72;22.00;101436.34;7737184;32;37336;-75
2022/03/14 18:58:02;;;;;;;19.80;10.50;;;;;;;10.76;21.91;101447.63;7737410;32;39313;-75
2022/03/14 19:02:19;;;;;;;14.27;7.75;;;;;;;10.31;22.17;101457.00;7737074;32;41154;-75
2022/03/14 19:06:36;;;;;;;26.30;16.90;;;;;;;10.40;22.50;101466.59;7736725;32;38786;-75
2022/03/14 19:10:52;;;;;;;22.90;13.48;;;;;;;10.33;22.33;101468.53;7736984;32;37234;-76
2022/03/14 19:15:10;;;;;;;18.75;7.40;;;;;;;10.14;22.51;101473.13;7736830;32;39951;-74
2022/03/14 19:19:27;;;;;;;12.37;7.43;;;;;;;9.92;23.43;101470.06;7736558;32;40615;-75
2022/03/14 19:23:46;;;;;;;13.48;7.70;;;;;;;9.84;24.19;101476.63;7736549;32;36671;-75
2022/03/14 19:28:02;;;;;;;13.57;7.68;;;;;;;9.91;23.72;101485.56;7736756;32;37581;-76
2022/03/14 19:32:18;;;;;;;16.42;8.13;;;;;;;9.58;24.67;101521.28;7735491;32;40037;-75
2022/03/14 19:36:40;;;;;;;15.20;7.50;;;;;;;9.69;24.47;101546.94;7736215;32;41152;-75
2022/03/14 19:40:57;;;;;;;13.13;7.40;;;;;;;9.42;25.09;101524.56;7736474;32;37857;-74
2022/03/14 19:45:13;;;;;;;13.77;7.00;;;;;;;9.56;25.08;101502.44;7736172;32;37129;-74